createdAt,value
2023-12-21T00:00:09.813Z,3.58
2023-12-21T00:02:40.385Z,3.59
2023-12-21T00:05:08.720Z,3.57
2023-12-21T00:07:36.517Z,3.66
2023-12-21T00:10:04.601Z,3.68
2023-12-21T00:12:32.610Z,3.67
2023-12-21T00:15:04.479Z,3.68
2023-12-21T00:17:32.151Z,3.64
2023-12-21T00:19:59.969Z,3.66
2023-12-21T00:22:30.744Z,3.69
2023-12-21T00:24:58.435Z,3.68
2023-12-21T00:27:26.149Z,3.75
2023-12-21T00:29:53.718Z,3.59
2023-12-21T00:32:22.766Z,3.64
2023-12-21T00:34:51.356Z,3.55
2023-12-21T00:37:21.314Z,3.57
2023-12-21T00:39:49.273Z,3.58
2023-12-21T00:42:16.897Z,3.61
2023-12-21T00:44:44.872Z,3.58
2023-12-21T00:47:12.580Z,3.60
2023-12-21T00:49:40.597Z,3.55
2023-12-21T00:52:08.299Z,3.55
2023-12-21T00:54:35.894Z,3.60
2023-12-21T00:57:03.561Z,3.60
2023-12-21T00:59:31.347Z,3.56
2023-12-21T01:01:59.364Z,3.56
2023-12-21T01:04:27.545Z,3.59
2023-12-21T01:06:56.555Z,3.58
2023-12-21T01:09:24.036Z,3.64
2023-12-21T01:11:51.545Z,3.51
2023-12-21T01:14:19.268Z,3.54
2023-12-21T01:16:46.896Z,3.52
2023-12-21T01:19:14.613Z,3.58
2023-12-21T01:21:44.411Z,3.57
2023-12-21T01:24:13.426Z,3.56
2023-12-21T01:26:41.453Z,3.57
2023-12-21T01:29:09.055Z,3.53
2023-12-21T01:31:36.703Z,3.58
2023-12-21T01:34:06.608Z,3.55
2023-12-21T01:36:34.370Z,3.60
2023-12-21T01:39:02.016Z,3.61
2023-12-21T01:41:33.815Z,3.64
2023-12-21T01:44:03.494Z,3.61
2023-12-21T01:46:31.876Z,3.62
2023-12-21T01:49:01.902Z,3.67
2023-12-21T01:51:33.592Z,3.61
2023-12-21T01:54:04.252Z,3.68
2023-12-21T01:56:35.695Z,3.68
2023-12-21T01:59:03.280Z,3.70
2023-12-21T02:01:32.789Z,3.70
2023-12-21T02:04:00.873Z,3.70
2023-12-21T02:06:28.858Z,3.69
2023-12-21T02:08:56.685Z,3.72
2023-12-21T02:11:24.287Z,3.78
2023-12-21T02:13:53.312Z,3.71
2023-12-21T02:16:23.083Z,3.74
2023-12-21T02:18:51.308Z,3.75
2023-12-21T02:21:19.245Z,3.78
2023-12-21T02:23:52.315Z,3.79
2023-12-21T02:26:21.471Z,3.75
2023-12-21T02:28:49.049Z,3.75
2023-12-21T02:31:16.706Z,3.81
2023-12-21T02:33:44.485Z,3.82
2023-12-21T02:36:12.309Z,3.81
2023-12-21T02:38:40.065Z,3.81
2023-12-21T02:41:07.797Z,3.83
2023-12-21T02:43:36.776Z,3.85
2023-12-21T02:46:04.366Z,3.83
2023-12-21T02:48:32.095Z,3.85
2023-12-21T02:51:02.164Z,3.84
2023-12-21T02:53:29.848Z,3.82
2023-12-21T02:55:57.485Z,3.84
2023-12-21T02:58:25.558Z,3.86
2023-12-21T03:00:54.632Z,3.83
2023-12-21T03:03:22.396Z,3.82
2023-12-21T03:05:50.028Z,3.84
2023-12-21T03:08:17.599Z,3.78
2023-12-21T03:10:45.342Z,3.77
2023-12-21T03:13:13.066Z,3.82
2023-12-21T03:15:40.759Z,3.81
2023-12-21T03:18:09.754Z,3.79
2023-12-21T03:20:37.776Z,3.74
2023-12-21T03:23:05.709Z,3.78
2023-12-21T03:25:33.353Z,3.78
2023-12-21T03:28:01.868Z,3.82
2023-12-21T03:30:29.630Z,3.83
2023-12-21T03:32:57.355Z,3.77
2023-12-21T03:35:26.767Z,3.77
2023-12-21T03:37:54.408Z,3.80
2023-12-21T03:40:22.066Z,3.83
2023-12-21T03:42:53.327Z,3.83
2023-12-21T03:45:24.838Z,3.84
2023-12-21T03:47:52.576Z,3.84
2023-12-21T03:50:20.200Z,3.82
2023-12-21T03:52:49.598Z,3.81
2023-12-21T03:55:17.518Z,3.85
2023-12-21T03:57:45.185Z,3.82
2023-12-21T04:00:14.376Z,3.85
2023-12-21T04:02:42.052Z,3.83
2023-12-21T04:05:09.931Z,3.82
2023-12-21T04:07:37.772Z,3.91
2023-12-21T04:10:08.219Z,3.84
2023-12-21T04:12:38.147Z,3.86
2023-12-21T04:15:06.681Z,3.87
2023-12-21T04:17:34.417Z,3.87
2023-12-21T04:20:02.409Z,3.84
2023-12-21T04:22:30.298Z,3.86
2023-12-21T04:24:58.009Z,3.87
2023-12-21T04:27:29.746Z,3.90
2023-12-21T04:29:57.386Z,3.87
2023-12-21T04:32:25.070Z,3.90
2023-12-21T04:34:52.819Z,3.85
2023-12-21T04:37:20.618Z,3.88
2023-12-21T04:39:48.727Z,3.93
2023-12-21T04:42:16.419Z,3.92
2023-12-21T04:44:47.483Z,3.93
2023-12-21T04:47:22.933Z,3.87
2023-12-21T04:49:52.088Z,3.89
2023-12-21T04:52:19.998Z,3.90
2023-12-21T04:54:47.683Z,3.96
2023-12-21T04:57:17.401Z,3.92
2023-12-21T04:59:47.728Z,3.96
2023-12-21T05:02:15.255Z,3.93
2023-12-21T05:04:42.944Z,3.97
2023-12-21T05:07:12.157Z,3.95
2023-12-21T05:09:40.026Z,3.96
2023-12-21T05:12:08.096Z,4.00
2023-12-21T05:14:38.589Z,4.02
2023-12-21T05:17:09.983Z,3.97
2023-12-21T05:19:39.057Z,3.98
2023-12-21T05:22:06.885Z,4.02
2023-12-21T05:24:34.730Z,4.03
2023-12-21T05:27:03.031Z,4.05
2023-12-21T05:29:30.636Z,4.05
2023-12-21T05:31:58.446Z,4.07
2023-12-21T05:34:27.621Z,4.04
2023-12-21T05:36:55.346Z,4.04
2023-12-21T05:39:23.087Z,4.06
2023-12-21T05:41:50.666Z,4.06
2023-12-21T05:44:18.291Z,4.05
2023-12-21T05:46:45.967Z,4.10
2023-12-21T05:49:13.725Z,4.10
2023-12-21T05:51:42.718Z,4.12
2023-12-21T05:54:10.213Z,4.12
2023-12-21T05:56:37.861Z,4.13
2023-12-21T05:59:08.512Z,4.13
2023-12-21T06:01:36.505Z,4.13
2023-12-21T06:04:04.882Z,4.16
2023-12-21T06:06:32.722Z,4.18
2023-12-21T06:09:01.782Z,4.21
2023-12-21T06:11:29.726Z,4.22
2023-12-21T06:13:57.408Z,4.25
2023-12-21T06:16:25.017Z,4.28
2023-12-21T06:18:52.779Z,4.28
2023-12-21T06:21:20.430Z,4.29
2023-12-21T06:23:49.454Z,4.29
2023-12-21T06:26:18.449Z,4.34
2023-12-21T06:28:46.227Z,4.34
2023-12-21T06:31:17.973Z,4.35
2023-12-21T06:33:45.891Z,4.36
2023-12-21T06:36:13.620Z,4.39
2023-12-21T06:38:43.982Z,4.42
2023-12-21T06:41:14.615Z,4.41
2023-12-21T06:43:43.745Z,4.39
2023-12-21T06:46:14.128Z,4.40
2023-12-21T06:48:42.958Z,4.41
2023-12-21T06:51:10.877Z,4.42
2023-12-21T06:53:38.791Z,4.42
2023-12-21T06:56:18.458Z,4.46
2023-12-21T06:58:56.370Z,4.44
2023-12-21T07:01:26.376Z,4.46
2023-12-21T07:03:54.314Z,4.44
2023-12-21T07:06:22.344Z,4.48
2023-12-21T07:08:49.980Z,4.46
2023-12-21T07:11:18.426Z,4.49
2023-12-21T07:13:46.520Z,4.46
2023-12-21T07:16:15.708Z,4.46
2023-12-21T07:18:43.343Z,4.46
2023-12-21T07:21:11.076Z,4.49
2023-12-21T07:23:38.734Z,4.48
2023-12-21T07:26:06.569Z,4.45
2023-12-21T07:28:36.308Z,4.50
2023-12-21T07:31:04.134Z,4.47
2023-12-21T07:33:33.646Z,4.48
2023-12-21T07:36:02.686Z,4.48
2023-12-21T07:38:30.638Z,4.48
2023-12-21T07:40:58.262Z,4.51
2023-12-21T07:43:25.852Z,4.52
2023-12-21T07:45:53.804Z,4.51
2023-12-21T07:48:23.656Z,4.49
2023-12-21T07:50:52.650Z,4.50
2023-12-21T07:53:20.267Z,4.52
2023-12-21T07:55:48.049Z,4.53
2023-12-21T07:58:15.884Z,4.56
2023-12-21T08:00:43.512Z,4.55
2023-12-21T08:03:11.172Z,4.55
2023-12-21T08:05:38.887Z,4.55
2023-12-21T08:08:08.253Z,4.57
2023-12-21T08:10:35.943Z,4.55
2023-12-21T08:13:03.695Z,4.57
2023-12-21T08:15:31.581Z,4.58
2023-12-21T08:18:00.616Z,4.55
2023-12-21T08:20:28.699Z,4.61
2023-12-21T08:22:56.422Z,4.58
2023-12-21T08:25:25.989Z,4.60
2023-12-21T08:27:54.480Z,4.62
2023-12-21T08:30:23.321Z,4.65
2023-12-21T08:32:51.140Z,4.65
2023-12-21T08:35:19.166Z,4.63
2023-12-21T08:37:46.966Z,4.67
2023-12-21T08:40:16.542Z,4.67
2023-12-21T08:42:45.835Z,4.64
2023-12-21T08:45:15.031Z,4.70
2023-12-21T08:47:43.124Z,4.71
2023-12-21T08:50:13.417Z,4.71
2023-12-21T08:52:42.716Z,4.71
2023-12-21T08:55:11.040Z,4.73
2023-12-21T08:57:40.691Z,4.74
2023-12-21T09:00:14.187Z,4.74
2023-12-21T09:02:42.541Z,4.81
2023-12-21T09:05:13.362Z,4.84
2023-12-21T09:07:41.213Z,4.84
2023-12-21T09:10:09.989Z,4.79
2023-12-21T09:12:40.768Z,4.82
2023-12-21T09:15:10.507Z,4.84
2023-12-21T09:17:38.211Z,4.82
2023-12-21T09:20:06.887Z,4.85
2023-12-21T09:22:34.753Z,4.84
2023-12-21T09:25:03.796Z,4.82
2023-12-21T09:27:32.126Z,4.90
2023-12-21T09:30:00.020Z,4.90
2023-12-21T09:32:29.249Z,4.91
2023-12-21T09:34:57.135Z,4.92
2023-12-21T09:37:31.415Z,4.98
2023-12-21T09:39:59.769Z,4.93
2023-12-21T09:42:29.323Z,4.95
2023-12-21T09:44:57.010Z,4.97
2023-12-21T09:47:25.615Z,4.95
2023-12-21T09:49:55.480Z,4.97
2023-12-21T09:52:23.385Z,5.00
2023-12-21T09:54:53.705Z,5.04
2023-12-21T09:57:23.176Z,5.00
2023-12-21T09:59:51.845Z,5.03
2023-12-21T10:02:19.560Z,5.06
2023-12-21T10:04:47.441Z,5.04
2023-12-21T10:07:17.508Z,5.05
2023-12-21T10:09:46.141Z,5.04
2023-12-21T10:12:13.970Z,5.06
2023-12-21T10:14:41.523Z,5.06
2023-12-21T10:17:11.957Z,5.10
2023-12-21T10:19:40.099Z,5.10
2023-12-21T10:22:07.860Z,5.14
2023-12-21T10:24:39.445Z,5.11
2023-12-21T10:27:15.988Z,5.13
2023-12-21T10:29:43.731Z,5.14
2023-12-21T10:32:11.379Z,5.16
2023-12-21T10:34:39.401Z,5.20
2023-12-21T10:37:07.230Z,5.22
2023-12-21T10:39:36.390Z,5.28
2023-12-21T10:42:04.184Z,5.24
2023-12-21T10:44:32.106Z,5.27
2023-12-21T10:47:02.883Z,5.35
2023-12-21T10:49:30.868Z,5.36
2023-12-21T10:51:59.280Z,5.35
2023-12-21T10:54:28.614Z,5.39
2023-12-21T10:56:58.853Z,5.46
2023-12-21T10:59:28.602Z,5.54
2023-12-21T11:01:56.620Z,5.45
2023-12-21T11:04:26.038Z,5.48
2023-12-21T11:06:55.117Z,5.47
2023-12-21T11:09:28.043Z,5.46
2023-12-21T11:11:58.541Z,5.49
2023-12-21T11:14:26.745Z,5.50
2023-12-21T11:16:58.670Z,5.58
2023-12-21T11:19:31.626Z,5.60
2023-12-21T11:21:59.751Z,5.61
2023-12-21T11:24:27.499Z,5.59
2023-12-21T11:26:55.327Z,5.65
2023-12-21T11:29:29.620Z,5.75
2023-12-21T11:31:58.450Z,5.77
2023-12-21T11:34:37.812Z,5.76
2023-12-21T11:37:17.436Z,5.82
2023-12-21T11:39:46.814Z,5.84
2023-12-21T11:42:14.518Z,5.85
2023-12-21T11:44:51.810Z,5.95
2023-12-21T11:47:19.817Z,5.92
2023-12-21T11:49:47.705Z,5.99
2023-12-21T11:52:25.154Z,5.89
2023-12-21T11:54:52.980Z,5.87
2023-12-21T11:57:20.575Z,5.94
2023-12-21T12:00:06.821Z,5.98
2023-12-21T12:02:34.598Z,5.99
2023-12-21T12:05:03.936Z,6.09
2023-12-21T12:07:32.716Z,6.19
2023-12-21T12:10:00.446Z,6.11
2023-12-21T12:12:28.359Z,6.09
2023-12-21T12:14:57.328Z,6.02
2023-12-21T12:17:25.025Z,5.97
2023-12-21T12:19:52.765Z,5.97
2023-12-21T12:22:22.831Z,5.95
2023-12-21T12:24:53.210Z,6.01
2023-12-21T12:27:20.922Z,5.90
2023-12-21T12:29:48.911Z,5.89
2023-12-21T12:32:19.744Z,5.93
2023-12-21T12:34:48.613Z,5.91
2023-12-21T12:37:17.407Z,5.88
2023-12-21T12:39:47.739Z,5.87
2023-12-21T12:42:15.482Z,5.85
2023-12-21T12:44:43.272Z,5.87
2023-12-21T12:47:11.989Z,5.87
2023-12-21T12:49:43.556Z,5.88
2023-12-21T12:52:17.108Z,5.90
2023-12-21T12:54:44.825Z,5.88
2023-12-21T12:57:13.240Z,5.93
2023-12-21T12:59:42.233Z,5.90
2023-12-21T13:02:10.008Z,5.94
2023-12-21T13:04:38.141Z,5.91
2023-12-21T13:07:07.358Z,5.97
2023-12-21T13:09:36.100Z,6.03
2023-12-21T13:12:04.643Z,5.95
2023-12-21T13:14:32.286Z,5.94
2023-12-21T13:17:01.591Z,6.02
2023-12-21T13:19:29.382Z,6.05
2023-12-21T13:21:57.403Z,6.02
2023-12-21T13:24:26.616Z,6.04
2023-12-21T13:26:54.174Z,6.11
2023-12-21T13:29:23.163Z,6.28
2023-12-21T13:31:50.856Z,6.13
2023-12-21T13:34:18.787Z,6.11
2023-12-21T13:36:46.570Z,6.26
2023-12-21T13:39:14.504Z,6.23
2023-12-21T13:41:45.885Z,6.19
2023-12-21T13:44:18.742Z,6.26
2023-12-21T13:46:57.394Z,6.30
2023-12-21T13:49:25.214Z,6.35
2023-12-21T13:51:54.326Z,6.33
2023-12-21T13:54:24.803Z,6.32
2023-12-21T13:57:03.698Z,6.41
2023-12-21T13:59:41.338Z,6.34
2023-12-21T14:02:09.883Z,6.40
2023-12-21T14:04:38.717Z,6.48
2023-12-21T14:07:06.935Z,6.53
2023-12-21T14:09:35.687Z,6.58
2023-12-21T14:12:05.307Z,6.65
2023-12-21T14:14:32.909Z,6.57
2023-12-21T14:17:00.528Z,6.57
2023-12-21T14:19:28.280Z,6.58
2023-12-21T14:21:55.873Z,6.59
2023-12-21T14:24:23.621Z,6.63
2023-12-21T14:26:51.806Z,6.60
2023-12-21T14:29:21.144Z,6.76
2023-12-21T14:31:48.998Z,6.80
2023-12-21T14:34:16.807Z,6.73
2023-12-21T14:36:44.789Z,6.77
2023-12-21T14:39:12.870Z,6.75
2023-12-21T14:41:40.462Z,6.76
2023-12-21T14:44:08.097Z,6.99
2023-12-21T14:46:41.286Z,6.97
2023-12-21T14:49:09.770Z,6.86
2023-12-21T14:51:41.351Z,7.01
2023-12-21T14:54:09.026Z,6.85
2023-12-21T14:56:36.808Z,6.94
2023-12-21T14:59:04.973Z,6.91
2023-12-21T15:01:32.672Z,6.98
2023-12-21T15:04:02.054Z,6.99
2023-12-21T15:06:31.185Z,7.00
2023-12-21T15:09:02.093Z,7.05
2023-12-21T15:11:29.843Z,7.00
2023-12-21T15:13:59.116Z,6.98
2023-12-21T15:16:28.605Z,6.91
2023-12-21T15:18:56.539Z,7.06
2023-12-21T15:21:25.534Z,7.09
2023-12-21T15:23:53.309Z,7.07
2023-12-21T15:26:21.132Z,6.99
2023-12-21T15:28:48.872Z,7.03
2023-12-21T15:31:17.205Z,7.10
2023-12-21T15:33:45.016Z,7.10
2023-12-21T15:36:13.489Z,7.16
2023-12-21T15:38:42.483Z,7.04
2023-12-21T15:41:18.569Z,7.04
2023-12-21T15:43:46.335Z,7.08
2023-12-21T15:46:14.091Z,7.26
2023-12-21T15:48:41.695Z,7.06
2023-12-21T15:51:09.357Z,7.12
2023-12-21T15:53:36.955Z,7.17
2023-12-21T15:56:06.401Z,7.07
2023-12-21T15:58:35.827Z,7.02
2023-12-21T16:01:05.176Z,7.04
2023-12-21T16:03:33.319Z,7.01
2023-12-21T16:06:01.421Z,7.06
2023-12-21T16:08:29.458Z,6.94
2023-12-21T16:10:57.132Z,7.11
2023-12-21T16:13:26.187Z,7.26
2023-12-21T16:15:53.853Z,7.14
2023-12-21T16:18:21.963Z,7.03
2023-12-21T16:20:49.793Z,7.09
2023-12-21T16:23:18.391Z,7.17
2023-12-21T16:25:46.180Z,7.25
2023-12-21T16:28:13.975Z,7.33
2023-12-21T16:30:42.997Z,7.35
2023-12-21T16:33:10.902Z,7.25
2023-12-21T16:35:39.315Z,7.24
2023-12-21T16:38:07.059Z,7.34
2023-12-21T16:40:34.648Z,7.26
2023-12-21T16:43:02.317Z,7.28
2023-12-21T16:45:32.351Z,7.19
2023-12-21T16:48:02.515Z,7.21
2023-12-21T16:50:30.317Z,7.11
2023-12-21T16:52:57.951Z,7.06
2023-12-21T16:55:26.386Z,7.31
2023-12-21T16:57:53.990Z,7.21
2023-12-21T17:00:23.179Z,7.24
2023-12-21T17:02:51.124Z,7.22
2023-12-21T17:05:20.365Z,7.31
2023-12-21T17:07:48.205Z,7.09
2023-12-21T17:10:16.125Z,7.07
2023-12-21T17:12:44.069Z,7.04
2023-12-21T17:15:12.082Z,7.10
2023-12-21T17:17:39.763Z,7.07
2023-12-21T17:20:08.623Z,7.03
2023-12-21T17:22:37.611Z,7.09
2023-12-21T17:25:05.768Z,7.15
2023-12-21T17:27:33.376Z,7.33
2023-12-21T17:30:01.008Z,7.30
2023-12-21T17:32:29.019Z,7.27
2023-12-21T17:34:56.810Z,7.17
2023-12-21T17:37:24.592Z,7.32
2023-12-21T17:39:53.766Z,7.28
2023-12-21T17:42:21.772Z,7.38
2023-12-21T17:44:49.376Z,7.32
2023-12-21T17:47:17.048Z,7.36
2023-12-21T17:49:44.804Z,7.24
2023-12-21T17:52:12.532Z,7.48
2023-12-21T17:54:40.380Z,7.25
2023-12-21T17:57:09.476Z,7.37
2023-12-21T17:59:37.136Z,7.40
2023-12-21T18:02:07.489Z,7.32
2023-12-21T18:04:35.269Z,7.26
2023-12-21T18:07:02.856Z,7.42
2023-12-21T18:09:30.450Z,7.46
2023-12-21T18:11:58.048Z,7.30
2023-12-21T18:14:27.776Z,7.25
2023-12-21T18:16:55.449Z,7.25
2023-12-21T18:19:23.504Z,7.15
2023-12-21T18:21:54.513Z,7.43
2023-12-21T18:24:24.261Z,7.32
2023-12-21T18:26:52.086Z,7.37
2023-12-21T18:29:23.777Z,7.54
2023-12-21T18:31:54.288Z,7.49
2023-12-21T18:34:22.494Z,7.63
2023-12-21T18:36:50.083Z,7.66
2023-12-21T18:39:17.663Z,7.69
2023-12-21T18:41:45.533Z,7.51
2023-12-21T18:44:13.286Z,7.44
2023-12-21T18:46:42.492Z,7.49
2023-12-21T18:49:12.153Z,7.61
2023-12-21T18:51:40.265Z,7.60
2023-12-21T18:54:08.272Z,7.53
2023-12-21T18:56:35.887Z,7.59
2023-12-21T18:59:03.486Z,7.51
2023-12-21T19:01:31.224Z,7.44
2023-12-21T19:04:01.278Z,7.31
2023-12-21T19:06:31.610Z,7.40
2023-12-21T19:08:59.223Z,7.40
2023-12-21T19:11:27.584Z,7.37
2023-12-21T19:13:55.244Z,7.12
2023-12-21T19:16:23.062Z,6.99
2023-12-21T19:18:50.889Z,7.05
2023-12-21T19:21:18.951Z,6.93
2023-12-21T19:23:47.956Z,6.93
2023-12-21T19:26:15.597Z,6.93
2023-12-21T19:28:43.454Z,6.81
2023-12-21T19:31:11.140Z,6.91
2023-12-21T19:33:39.058Z,7.15
2023-12-21T19:36:07.472Z,7.09
2023-12-21T19:38:35.102Z,7.12
2023-12-21T19:41:04.183Z,7.27
2023-12-21T19:43:33.080Z,7.07
2023-12-21T19:46:01.702Z,7.03
2023-12-21T19:48:34.653Z,7.25
2023-12-21T19:51:02.589Z,7.10
2023-12-21T19:53:30.312Z,7.25
2023-12-21T19:55:58.234Z,7.04
2023-12-21T19:58:28.128Z,6.61
2023-12-21T20:00:58.098Z,5.91
2023-12-21T20:03:26.080Z,5.55
2023-12-21T20:05:54.440Z,5.40
2023-12-21T20:08:22.228Z,5.31
2023-12-21T20:10:49.939Z,5.26
2023-12-21T20:13:17.715Z,5.03
2023-12-21T20:15:49.906Z,4.98
2023-12-21T20:18:19.991Z,4.96
2023-12-21T20:20:47.752Z,4.80
2023-12-21T20:23:15.563Z,4.84
2023-12-21T20:25:43.286Z,4.80
2023-12-21T20:28:11.622Z,4.84
2023-12-21T20:30:39.276Z,4.82
2023-12-21T20:33:10.912Z,4.81
2023-12-21T20:35:41.323Z,4.80
2023-12-21T20:38:08.998Z,4.84
2023-12-21T20:40:37.397Z,4.76
2023-12-21T20:43:05.677Z,4.76
2023-12-21T20:45:33.915Z,4.71
2023-12-21T20:48:01.669Z,4.78
2023-12-21T20:50:30.910Z,4.75
2023-12-21T20:52:59.038Z,4.66
2023-12-21T20:55:26.791Z,4.79
2023-12-21T20:57:54.409Z,4.64
2023-12-21T21:00:22.255Z,4.75
2023-12-21T21:02:50.609Z,4.82
2023-12-21T21:05:18.319Z,4.84
2023-12-21T21:07:47.635Z,4.86
2023-12-21T21:10:15.553Z,4.98
2023-12-21T21:12:43.147Z,5.11
2023-12-21T21:15:11.219Z,5.02
2023-12-21T21:17:38.964Z,5.08
2023-12-21T21:20:08.061Z,5.05
2023-12-21T21:22:40.309Z,5.04
2023-12-21T21:25:10.592Z,5.09
2023-12-21T21:27:39.440Z,5.08
2023-12-21T21:30:08.141Z,4.94
2023-12-21T21:32:36.093Z,4.48
2023-12-21T21:35:04.036Z,2.89
2023-12-21T21:37:31.797Z,2.72
2023-12-21T21:39:59.588Z,3.21
2023-12-21T21:42:28.601Z,3.25
2023-12-21T21:44:56.038Z,3.58
2023-12-21T21:47:23.538Z,3.80
2023-12-21T21:49:51.050Z,3.85
2023-12-21T21:52:18.513Z,3.82
2023-12-21T21:54:45.987Z,3.92
2023-12-21T21:57:13.481Z,4.07
2023-12-21T21:59:42.451Z,4.08
2023-12-21T22:02:10.061Z,4.06
2023-12-21T22:04:37.827Z,4.17
2023-12-21T22:07:06.113Z,4.07
2023-12-21T22:09:33.848Z,4.07
2023-12-21T22:12:01.779Z,4.01
2023-12-21T22:14:29.505Z,3.98
2023-12-21T22:16:58.669Z,4.09
2023-12-21T22:19:26.425Z,4.05
2023-12-21T22:21:54.400Z,4.02
2023-12-21T22:24:22.049Z,4.08
2023-12-21T22:26:49.742Z,4.09
2023-12-21T22:29:18.774Z,4.12
2023-12-21T22:31:46.280Z,4.06
2023-12-21T22:34:15.430Z,3.93
2023-12-21T22:36:43.344Z,4.00
2023-12-21T22:39:10.953Z,3.96
2023-12-21T22:41:38.510Z,3.97
2023-12-21T22:44:06.416Z,4.03
2023-12-21T22:46:34.131Z,4.02
2023-12-21T22:49:02.002Z,3.96
2023-12-21T22:51:33.951Z,4.12
2023-12-21T22:54:01.689Z,4.10
2023-12-21T22:56:29.329Z,4.11
2023-12-21T22:58:56.910Z,4.10
2023-12-21T23:01:24.617Z,4.08
2023-12-21T23:03:52.386Z,4.14
2023-12-21T23:06:21.405Z,4.05
2023-12-21T23:08:50.492Z,4.05
2023-12-21T23:11:18.265Z,4.00
2023-12-21T23:13:45.886Z,3.92
2023-12-21T23:16:13.793Z,3.94
2023-12-21T23:18:41.519Z,3.98
2023-12-21T23:21:09.247Z,3.98
2023-12-21T23:23:36.983Z,3.94
2023-12-21T23:26:06.274Z,3.91
2023-12-21T23:28:34.021Z,3.88
2023-12-21T23:31:01.787Z,3.91
2023-12-21T23:33:29.570Z,3.89
2023-12-21T23:35:57.304Z,3.89
2023-12-21T23:38:25.562Z,3.76
2023-12-21T23:40:53.940Z,3.75
2023-12-21T23:43:23.939Z,3.71
2023-12-21T23:45:51.651Z,3.71
2023-12-21T23:48:19.352Z,3.72
2023-12-21T23:50:47.033Z,3.91
2023-12-21T23:53:14.855Z,3.64
2023-12-21T23:55:42.637Z,3.66
2023-12-21T23:58:10.321Z,3.66
